createdAt,value
2023-03-06T00:01:18.789Z,100105.11
2023-03-06T00:03:48.594Z,100105.66
2023-03-06T00:06:18.780Z,100094.63
2023-03-06T00:08:48.546Z,100094.26
2023-03-06T00:11:18.367Z,100094.97
2023-03-06T00:13:48.219Z,100093.64
2023-03-06T00:16:18.019Z,100090.70
2023-03-06T00:18:47.883Z,100084.90
2023-03-06T00:21:17.810Z,100084.41
2023-03-06T00:23:47.657Z,100080.80
2023-03-06T00:26:17.502Z,100082.93
2023-03-06T00:28:47.412Z,100072.90
2023-03-06T00:31:17.314Z,100070.20
2023-03-06T00:33:47.225Z,100065.66
2023-03-06T00:36:17.069Z,100063.67
2023-03-06T00:38:46.906Z,100058.11
2023-03-06T00:41:16.634Z,100056.36
2023-03-06T00:43:46.694Z,100054.55
2023-03-06T00:46:16.611Z,100047.27
2023-03-06T00:48:46.535Z,100047.17
2023-03-06T00:51:19.399Z,100042.07
2023-03-06T00:53:49.140Z,100033.92
2023-03-06T00:56:20.062Z,100035.36
2023-03-06T00:58:49.939Z,100034.56
2023-03-06T01:01:19.846Z,100031.01
2023-03-06T01:03:49.663Z,100023.05
2023-03-06T01:06:19.505Z,100024.15
2023-03-06T01:08:48.051Z,100019.48
2023-03-06T01:11:16.445Z,100016.92
2023-03-06T01:13:45.031Z,100010.52
2023-03-06T01:16:17.079Z,100005.84
2023-03-06T01:18:46.157Z,100003.13
2023-03-06T01:21:14.985Z,99998.80
2023-03-06T01:23:44.784Z,99984.70
2023-03-06T01:26:14.912Z,99981.38
2023-03-06T01:28:44.825Z,99977.38
2023-03-06T01:31:14.974Z,99976.07
2023-03-06T01:33:44.866Z,99974.02
2023-03-06T01:36:14.867Z,99966.95
2023-03-06T01:38:44.971Z,99959.46
2023-03-06T01:41:15.872Z,99953.91
2023-03-06T01:43:47.314Z,99947.70
2023-03-06T01:46:17.147Z,99944.33
2023-03-06T01:48:49.953Z,99943.41
2023-03-06T01:51:19.980Z,99940.09
2023-03-06T01:53:51.721Z,99934.06
2023-03-06T01:56:23.748Z,99929.87
2023-03-06T01:58:53.997Z,99927.94
2023-03-06T02:01:24.366Z,99923.84
2023-03-06T02:03:55.726Z,99921.63
2023-03-06T02:06:25.578Z,99922.47
2023-03-06T02:08:54.828Z,99916.65
2023-03-06T02:11:25.475Z,99915.21
2023-03-06T02:13:55.044Z,99914.52
2023-03-06T02:16:27.708Z,99912.12
2023-03-06T02:19:01.282Z,99908.86
2023-03-06T02:21:36.257Z,99907.13
2023-03-06T02:24:33.131Z,99903.63
2023-03-06T02:27:07.112Z,99904.61
2023-03-06T02:29:36.913Z,99902.50
2023-03-06T02:32:07.346Z,99899.02
2023-03-06T02:34:36.975Z,99895.66
2023-03-06T02:37:11.134Z,99891.17
2023-03-06T02:39:48.893Z,99890.28
2023-03-06T02:42:25.785Z,99889.72
2023-03-06T02:44:59.426Z,99888.08
2023-03-06T02:47:29.524Z,99887.85
2023-03-06T02:49:59.278Z,99884.24
2023-03-06T02:52:29.145Z,99886.56
2023-03-06T02:54:58.918Z,99885.12
2023-03-06T02:57:28.773Z,99879.82
2023-03-06T02:59:57.193Z,99877.44
2023-03-06T03:02:25.633Z,99874.36
2023-03-06T03:04:53.976Z,99875.17
2023-03-06T03:07:22.415Z,99871.23
2023-03-06T03:09:51.061Z,99870.95
2023-03-06T03:12:19.850Z,99872.80
2023-03-06T03:14:49.179Z,99869.84
2023-03-06T03:17:17.065Z,99867.16
2023-03-06T03:19:45.264Z,99858.31
2023-03-06T03:22:13.874Z,99857.02
2023-03-06T03:24:42.547Z,99854.06
2023-03-06T03:27:11.018Z,99852.50
2023-03-06T03:29:39.083Z,99852.33
2023-03-06T03:32:08.229Z,99852.85
2023-03-06T03:34:35.843Z,99852.69
2023-03-06T03:37:04.421Z,99854.80
2023-03-06T03:39:32.822Z,99854.95
2023-03-06T03:42:01.082Z,99851.80
2023-03-06T03:44:29.465Z,99851.94
2023-03-06T03:46:57.923Z,99853.40
2023-03-06T03:49:26.269Z,99851.39
2023-03-06T03:51:54.693Z,99850.02
2023-03-06T03:54:23.332Z,99847.95
2023-03-06T03:56:51.734Z,99844.69
2023-03-06T03:59:20.959Z,99847.68
2023-03-06T04:01:49.365Z,99841.70
2023-03-06T04:04:16.814Z,99837.86
2023-03-06T04:06:45.203Z,99842.30
2023-03-06T04:09:13.926Z,99841.79
2023-03-06T04:11:42.017Z,99842.11
2023-03-06T04:14:10.490Z,99843.46
2023-03-06T04:16:38.834Z,99845.02
2023-03-06T04:19:07.248Z,99842.41
2023-03-06T04:21:35.763Z,99838.73
2023-03-06T04:24:05.168Z,99843.73
2023-03-06T04:26:32.942Z,99838.51
2023-03-06T04:29:01.626Z,99848.08
2023-03-06T04:31:29.885Z,99840.09
2023-03-06T04:33:58.435Z,99848.45
2023-03-06T04:36:34.019Z,99851.73
2023-03-06T04:39:02.788Z,99857.05
2023-03-06T04:41:30.739Z,99867.00
2023-03-06T04:43:58.296Z,99868.56
2023-03-06T04:46:26.737Z,99871.86
2023-03-06T04:48:55.288Z,99874.52
2023-03-06T04:51:24.006Z,99877.58
2023-03-06T04:53:52.390Z,99876.71
2023-03-06T04:56:20.576Z,99878.00
2023-03-06T04:58:49.085Z,99877.16
2023-03-06T05:01:17.445Z,99876.70
2023-03-06T05:03:45.733Z,99874.92
2023-03-06T05:06:14.120Z,99877.56
2023-03-06T05:08:42.537Z,99875.52
2023-03-06T05:11:10.918Z,99876.92
2023-03-06T05:13:38.158Z,99875.96
2023-03-06T05:16:08.831Z,99876.98
2023-03-06T05:18:37.889Z,99876.64
2023-03-06T05:21:07.919Z,99876.38
2023-03-06T05:23:38.813Z,99880.08
2023-03-06T05:26:10.873Z,99882.13
2023-03-06T05:28:41.235Z,99884.14
2023-03-06T05:31:10.700Z,99887.80
2023-03-06T05:33:40.560Z,99888.12
2023-03-06T05:36:10.679Z,99886.46
2023-03-06T05:38:40.451Z,99886.02
2023-03-06T05:41:14.230Z,99884.20
2023-03-06T05:43:41.987Z,99886.81
2023-03-06T05:46:12.031Z,99889.78
2023-03-06T05:48:41.896Z,99890.52
2023-03-06T05:51:11.993Z,99889.11
2023-03-06T05:53:41.792Z,99890.58
2023-03-06T05:56:13.654Z,99893.84
2023-03-06T05:58:41.894Z,99889.22
2023-03-06T06:01:19.083Z,99888.38
2023-03-06T06:03:47.266Z,99887.75
2023-03-06T06:06:17.884Z,99889.20
2023-03-06T06:08:45.643Z,99888.42
2023-03-06T06:11:14.591Z,99889.74
2023-03-06T06:13:42.451Z,99893.05
2023-03-06T06:16:19.103Z,99894.77
2023-03-06T06:18:48.229Z,99894.30
2023-03-06T06:21:16.886Z,99895.88
2023-03-06T06:23:46.530Z,99899.88
2023-03-06T06:26:13.640Z,99900.06
2023-03-06T06:28:43.447Z,99901.75
2023-03-06T06:31:13.041Z,99900.08
2023-03-06T06:33:41.549Z,99899.84
2023-03-06T06:36:20.203Z,99901.86
2023-03-06T06:38:49.987Z,99902.84
2023-03-06T06:41:42.363Z,99903.30
2023-03-06T06:44:14.422Z,99904.00
2023-03-06T06:49:37.674Z,99901.73
2023-03-06T06:52:06.668Z,99901.08
2023-03-06T06:54:36.534Z,99903.13
2023-03-06T06:57:06.419Z,99905.30
2023-03-06T06:59:36.152Z,99911.23
2023-03-06T07:02:06.360Z,99911.21
2023-03-06T07:04:36.058Z,99910.98
2023-03-06T07:07:05.954Z,99906.29
2023-03-06T07:09:35.766Z,99905.80
2023-03-06T07:12:12.527Z,99907.64
2023-03-06T07:14:42.708Z,99906.32
2023-03-06T07:17:12.473Z,99908.71
2023-03-06T07:19:41.048Z,99907.18
2023-03-06T07:22:09.784Z,99907.79
2023-03-06T07:24:37.990Z,99910.30
2023-03-06T07:27:06.464Z,99912.11
2023-03-06T07:29:35.321Z,99911.38
2023-03-06T07:32:03.511Z,99911.86
2023-03-06T07:34:31.947Z,99917.64
2023-03-06T07:37:00.424Z,99917.02
2023-03-06T07:39:30.174Z,99918.03
2023-03-06T07:41:58.689Z,99918.99
2023-03-06T07:44:26.923Z,99914.68
2023-03-06T07:46:54.341Z,99920.44
2023-03-06T07:49:22.731Z,99921.02
2023-03-06T07:51:51.602Z,99919.56
2023-03-06T07:54:20.297Z,99917.17
2023-03-06T07:56:53.023Z,99915.08
2023-03-06T07:59:20.516Z,99916.80
2023-03-06T08:01:49.346Z,99917.67
2023-03-06T08:04:17.972Z,99916.39
2023-03-06T08:06:46.734Z,99922.45
2023-03-06T08:09:15.250Z,99921.08
2023-03-06T08:11:45.299Z,99919.58
2023-03-06T08:14:12.169Z,99923.64
2023-03-06T08:16:42.593Z,99927.74
2023-03-06T08:19:12.443Z,99928.15
2023-03-06T08:21:42.431Z,99930.45
2023-03-06T08:24:13.239Z,99928.40
2023-03-06T08:26:43.143Z,99926.71
2023-03-06T08:29:13.539Z,99926.00
2023-03-06T08:31:46.068Z,99929.66
2023-03-06T08:34:22.294Z,99924.33
2023-03-06T08:36:52.624Z,99925.80
2023-03-06T08:39:23.688Z,99924.04
2023-03-06T08:41:53.486Z,99923.91
2023-03-06T08:44:23.183Z,99926.99
2023-03-06T08:46:52.912Z,99930.70
2023-03-06T08:49:22.796Z,99931.48
2023-03-06T08:51:52.570Z,99931.83
2023-03-06T08:54:22.361Z,99934.93
2023-03-06T08:56:52.246Z,99940.45
2023-03-06T08:59:21.988Z,99939.88
2023-03-06T09:01:51.717Z,99944.52
2023-03-06T09:04:19.092Z,99945.79
2023-03-06T09:06:46.270Z,99947.71
2023-03-06T09:09:16.103Z,99948.45
2023-03-06T09:11:45.983Z,99949.43
2023-03-06T09:14:15.813Z,99950.49
2023-03-06T09:16:45.629Z,99952.99
2023-03-06T09:19:15.403Z,99950.15
2023-03-06T09:21:43.917Z,99949.83
2023-03-06T09:24:12.765Z,99950.02
2023-03-06T09:26:46.040Z,99950.77
2023-03-06T09:29:17.442Z,99947.84
2023-03-06T09:31:46.752Z,99945.28
2023-03-06T09:34:17.107Z,99950.69
2023-03-06T09:36:55.818Z,99953.98
2023-03-06T09:39:27.225Z,99953.48
2023-03-06T09:41:58.577Z,99953.90
2023-03-06T09:44:34.488Z,99949.73
2023-03-06T09:47:38.602Z,99946.79
2023-03-06T09:50:30.774Z,99950.92
2023-03-06T09:53:43.554Z,99952.19
2023-03-06T09:56:31.022Z,99957.45
2023-03-06T09:59:23.776Z,99953.55
2023-03-06T10:02:18.903Z,99953.13
2023-03-06T10:04:59.536Z,99951.05
2023-03-06T10:07:51.028Z,99944.86
2023-03-06T10:10:27.354Z,99950.56
2023-03-06T10:13:10.665Z,99953.11
2023-03-06T10:15:44.956Z,99956.05
2023-03-06T10:18:14.971Z,99952.61
2023-03-06T10:20:56.000Z,99951.19
2023-03-06T10:23:50.522Z,99952.62
2023-03-06T10:26:26.467Z,99953.22
2023-03-06T10:29:11.386Z,99954.99
2023-03-06T10:31:49.263Z,99955.98
2023-03-06T10:34:32.610Z,99954.08
2023-03-06T10:37:22.017Z,99950.50
2023-03-06T10:40:00.821Z,99949.91
2023-03-06T10:42:29.245Z,99951.27
2023-03-06T10:45:14.801Z,99958.49
2023-03-06T10:47:44.906Z,99956.48
2023-03-06T10:50:28.818Z,99960.67
2023-03-06T10:53:06.242Z,99958.73
2023-03-06T10:55:38.320Z,99958.63
2023-03-06T10:58:25.231Z,99953.58
2023-03-06T11:01:09.479Z,99960.50
2023-03-06T11:03:39.487Z,99959.09
2023-03-06T11:06:35.125Z,99962.47
2023-03-06T11:09:18.922Z,99960.23
2023-03-06T11:11:50.554Z,99958.03
2023-03-06T11:14:23.155Z,99958.14
2023-03-06T11:16:53.920Z,99955.89
2023-03-06T11:19:28.714Z,99951.88
2023-03-06T11:22:18.948Z,99950.98
2023-03-06T11:24:53.401Z,99947.45
2023-03-06T11:27:35.086Z,99947.09
2023-03-06T11:30:18.205Z,99951.42
2023-03-06T11:32:55.900Z,99948.34
2023-03-06T11:35:49.464Z,99949.10
2023-03-06T11:38:42.031Z,99947.41
2023-03-06T11:41:52.732Z,99941.48
2023-03-06T11:44:58.896Z,99937.52
2023-03-06T11:48:00.205Z,99935.95
2023-03-06T11:50:38.513Z,99939.10
2023-03-06T11:53:33.174Z,99933.73
2023-03-06T11:56:18.420Z,99935.98
2023-03-06T11:59:08.384Z,99932.17
2023-03-06T12:02:15.067Z,99931.21
2023-03-06T12:05:26.977Z,99929.70
2023-03-06T12:08:16.817Z,99931.79
2023-03-06T12:11:06.407Z,99928.08
2023-03-06T12:14:14.636Z,99927.66
2023-03-06T12:16:58.643Z,99923.56
2023-03-06T12:19:53.359Z,99922.55
2023-03-06T12:23:14.575Z,99920.42
2023-03-06T12:26:02.309Z,99915.92
2023-03-06T12:28:59.686Z,99919.09
2023-03-06T12:32:23.467Z,99917.58
2023-03-06T12:35:06.435Z,99916.02
2023-03-06T12:38:08.225Z,99917.52
2023-03-06T12:41:10.708Z,99917.27
2023-03-06T12:44:04.150Z,99916.33
2023-03-06T12:46:43.307Z,99914.76
2023-03-06T12:49:32.503Z,99912.27
2023-03-06T12:52:07.626Z,99909.75
2023-03-06T12:54:41.162Z,99914.11
2023-03-06T12:57:15.584Z,99909.61
2023-03-06T12:59:50.005Z,99913.34
2023-03-06T13:03:04.265Z,99907.63
2023-03-06T13:06:27.576Z,99902.56
2023-03-06T13:09:18.660Z,99903.96
2023-03-06T13:12:12.513Z,99911.86
2023-03-06T13:14:48.708Z,99910.95
2023-03-06T13:17:33.553Z,99907.05
2023-03-06T13:20:15.515Z,99907.48
2023-03-06T13:22:47.861Z,99900.98
2023-03-06T13:25:16.838Z,99899.80
2023-03-06T13:27:52.965Z,99895.95
2023-03-06T13:30:38.606Z,99893.03
2023-03-06T13:33:27.070Z,99894.02
2023-03-06T13:36:19.045Z,99893.77
2023-03-06T13:38:48.694Z,99889.16
2023-03-06T13:41:53.734Z,99886.75
2023-03-06T13:44:24.919Z,99884.70
2023-03-06T13:47:04.393Z,99878.85
2023-03-06T13:49:35.050Z,99878.91
2023-03-06T13:52:29.897Z,99878.88
2023-03-06T13:55:11.926Z,99878.48
2023-03-06T13:57:54.728Z,99880.90
2023-03-06T14:01:17.676Z,99885.71
2023-03-06T14:04:25.897Z,99885.41
2023-03-06T14:06:58.578Z,99887.11
2023-03-06T14:09:35.879Z,99881.50
2023-03-06T14:12:30.199Z,99880.68
2023-03-06T14:15:20.216Z,99879.55
2023-03-06T14:18:12.800Z,99873.77
2023-03-06T14:20:51.547Z,99874.22
2023-03-06T14:23:21.252Z,99871.85
2023-03-06T14:26:24.207Z,99873.20
2023-03-06T14:28:53.506Z,99870.30
2023-03-06T14:31:27.668Z,99868.15
2023-03-06T14:34:02.733Z,99867.00
2023-03-06T14:36:41.979Z,99866.47
2023-03-06T14:39:41.116Z,99870.90
2023-03-06T14:42:24.975Z,99873.79
2023-03-06T14:45:18.668Z,99872.66
2023-03-06T14:47:53.071Z,99873.55
2023-03-06T14:50:28.880Z,99872.83
2023-03-06T14:53:30.279Z,99867.48
2023-03-06T14:56:06.758Z,99863.03
2023-03-06T14:58:58.982Z,99863.04
2023-03-06T15:01:36.172Z,99860.44
2023-03-06T15:04:32.196Z,99858.85
2023-03-06T15:07:10.588Z,99859.29
2023-03-06T15:09:40.341Z,99863.08
2023-03-06T15:12:19.683Z,99860.25
2023-03-06T15:15:26.501Z,99863.58
2023-03-06T15:17:57.073Z,99860.63
2023-03-06T15:20:41.903Z,99866.81
2023-03-06T15:23:19.362Z,99865.21
2023-03-06T15:25:59.196Z,99863.61
2023-03-06T15:28:37.129Z,99866.66
2023-03-06T15:31:24.996Z,99864.63
2023-03-06T15:34:06.850Z,99870.58
2023-03-06T15:36:49.156Z,99864.98
2023-03-06T15:39:36.022Z,99856.98
2023-03-06T15:42:23.435Z,99853.42
2023-03-06T15:44:59.977Z,99852.92
2023-03-06T15:47:27.574Z,99857.54
2023-03-06T15:49:56.932Z,99859.52
2023-03-06T15:52:24.514Z,99859.09
2023-03-06T15:54:53.070Z,99863.65
2023-03-06T15:57:28.120Z,99861.88
2023-03-06T16:00:00.528Z,99863.42
2023-03-06T16:02:30.379Z,99861.45
2023-03-06T16:05:02.494Z,99856.61
2023-03-06T16:07:32.435Z,99855.90
2023-03-06T16:10:03.636Z,99854.80
2023-03-06T16:12:34.333Z,99856.08
2023-03-06T16:15:13.022Z,99858.08
2023-03-06T16:17:42.841Z,99857.86
2023-03-06T16:20:20.482Z,99858.52
2023-03-06T16:22:51.263Z,99857.10
2023-03-06T16:25:24.260Z,99856.00
2023-03-06T16:27:58.636Z,99856.38
2023-03-06T16:30:34.313Z,99859.02
2023-03-06T16:33:05.134Z,99858.68
2023-03-06T16:35:34.877Z,99860.14
2023-03-06T16:38:05.047Z,99859.13
2023-03-06T16:40:38.823Z,99856.90
2023-03-06T16:43:10.734Z,99858.63
2023-03-06T16:45:41.831Z,99857.41
2023-03-06T16:48:16.877Z,99861.81
2023-03-06T16:50:46.767Z,99859.87
2023-03-06T16:53:17.389Z,99856.33
2023-03-06T16:55:47.265Z,99860.18
2023-03-06T16:58:17.132Z,99861.16
2023-03-06T17:00:47.036Z,99859.75
2023-03-06T17:03:17.872Z,99862.08
2023-03-06T17:05:47.860Z,99865.02
2023-03-06T17:08:16.250Z,99867.37
2023-03-06T17:10:44.619Z,99870.42
2023-03-06T17:13:13.533Z,99869.81
2023-03-06T17:15:41.890Z,99875.38
2023-03-06T17:18:10.936Z,99880.43
2023-03-06T17:20:40.745Z,99881.63
2023-03-06T17:23:08.360Z,99881.46
2023-03-06T17:25:38.470Z,99882.89
2023-03-06T17:28:07.813Z,99884.57
2023-03-06T17:30:36.980Z,99889.05
2023-03-06T17:33:05.594Z,99892.70
2023-03-06T17:35:36.630Z,99893.14
2023-03-06T17:38:06.470Z,99891.12
2023-03-06T17:40:36.417Z,99895.98
2023-03-06T17:43:06.191Z,99894.73
2023-03-06T17:45:36.937Z,99896.46
2023-03-06T17:48:06.669Z,99897.81
2023-03-06T17:50:36.524Z,99898.69
2023-03-06T17:53:06.255Z,99899.09
2023-03-06T17:55:40.402Z,99904.36
2023-03-06T17:58:12.386Z,99902.95
2023-03-06T18:00:43.810Z,99901.22
2023-03-06T18:03:13.598Z,99898.64
2023-03-06T18:05:43.507Z,99898.80
2023-03-06T18:08:13.645Z,99895.25
2023-03-06T18:10:43.724Z,99899.29
2023-03-06T18:13:13.471Z,99897.68
2023-03-06T18:15:43.196Z,99897.87
2023-03-06T18:18:13.037Z,99899.59
2023-03-06T18:20:41.829Z,99900.45
2023-03-06T18:23:09.769Z,99899.98
2023-03-06T18:25:38.283Z,99894.49
2023-03-06T18:28:06.913Z,99896.16
2023-03-06T18:30:37.313Z,99894.14
2023-03-06T18:33:06.873Z,99895.36
2023-03-06T18:35:35.859Z,99899.66
2023-03-06T18:38:03.494Z,99893.33
2023-03-06T18:40:31.901Z,99895.30
2023-03-06T18:43:00.106Z,99899.90
2023-03-06T18:45:28.606Z,99898.05
2023-03-06T18:47:57.030Z,99890.73
2023-03-06T18:50:25.474Z,99892.59
2023-03-06T18:52:53.959Z,99887.59
2023-03-06T18:55:22.338Z,99889.56
2023-03-06T18:57:50.635Z,99889.16
2023-03-06T19:00:20.325Z,99890.20
2023-03-06T19:02:47.938Z,99884.86
2023-03-06T19:05:17.366Z,99887.17
2023-03-06T19:07:44.457Z,99889.60
2023-03-06T19:10:12.910Z,99893.07
2023-03-06T19:12:41.217Z,99896.92
2023-03-06T19:15:10.450Z,99895.35
2023-03-06T19:17:38.260Z,99894.77
2023-03-06T19:20:07.410Z,99893.30
2023-03-06T19:22:35.522Z,99891.41
2023-03-06T19:25:04.028Z,99890.64
2023-03-06T19:27:32.679Z,99887.94
2023-03-06T19:30:00.274Z,99887.23
2023-03-06T19:32:29.673Z,99886.16
2023-03-06T19:34:59.345Z,99887.58
2023-03-06T19:37:29.458Z,99888.42
2023-03-06T19:40:01.439Z,99888.99
2023-03-06T19:42:32.196Z,99885.80
2023-03-06T19:45:02.070Z,99884.79
2023-03-06T19:47:32.630Z,99885.81
2023-03-06T19:50:03.024Z,99888.23
2023-03-06T19:52:36.926Z,99887.25
2023-03-06T19:55:08.693Z,99887.56
2023-03-06T19:57:38.459Z,99885.39
2023-03-06T20:00:12.859Z,99884.73
2023-03-06T20:02:42.655Z,99881.32
2023-03-06T20:05:11.167Z,99882.67
2023-03-06T20:07:39.550Z,99881.73
2023-03-06T20:10:10.141Z,99880.75
2023-03-06T20:12:39.453Z,99880.61
2023-03-06T20:15:08.807Z,99876.79
2023-03-06T20:17:39.695Z,99877.71
2023-03-06T20:20:10.834Z,99872.54
2023-03-06T20:22:40.885Z,99876.77
2023-03-06T20:25:10.757Z,99871.14
2023-03-06T20:27:40.794Z,99867.54
2023-03-06T20:30:11.597Z,99868.48
2023-03-06T20:32:41.363Z,99868.31
2023-03-06T20:35:11.311Z,99867.08
2023-03-06T20:37:41.471Z,99865.56
2023-03-06T20:40:12.301Z,99858.76
2023-03-06T20:42:42.209Z,99859.97
2023-03-06T20:45:12.147Z,99851.24
2023-03-06T20:47:47.090Z,99848.41
2023-03-06T20:50:17.092Z,99845.02
2023-03-06T21:01:32.186Z,99835.44
2023-03-06T21:04:04.530Z,99832.75
2023-03-06T21:06:34.444Z,99829.99
2023-03-06T21:09:07.057Z,99830.25
2023-03-06T21:11:36.899Z,99826.02
2023-03-06T21:14:07.076Z,99824.52
2023-03-06T21:16:36.964Z,99822.11
2023-03-06T21:19:07.179Z,99819.08
2023-03-06T21:21:36.978Z,99817.70
2023-03-06T21:24:05.969Z,99813.77
2023-03-06T21:26:34.297Z,99814.13
2023-03-06T21:29:03.430Z,99809.96
2023-03-06T21:31:33.310Z,99811.27
2023-03-06T21:34:04.830Z,99810.56
2023-03-06T21:36:35.124Z,99803.15
2023-03-06T21:39:08.084Z,99798.70
2023-03-06T21:41:38.201Z,99794.01
2023-03-06T21:44:08.090Z,99792.35
2023-03-06T21:46:37.859Z,99792.94
2023-03-06T21:49:07.644Z,99789.98
2023-03-06T21:51:37.521Z,99787.36
2023-03-06T21:54:09.583Z,99786.74
2023-03-06T21:56:39.323Z,99784.79
2023-03-06T21:59:09.127Z,99786.25
2023-03-06T22:01:39.053Z,99786.55
2023-03-06T22:04:09.039Z,99781.77
2023-03-06T22:06:40.544Z,99785.23
2023-03-06T22:09:12.945Z,99781.48
2023-03-06T22:11:43.092Z,99783.64
2023-03-06T22:14:14.813Z,99778.54
2023-03-06T22:16:44.659Z,99776.70
2023-03-06T22:19:15.618Z,99773.41
2023-03-06T22:21:45.403Z,99768.41
2023-03-06T22:24:15.466Z,99762.27
2023-03-06T22:26:45.359Z,99757.16
2023-03-06T22:29:15.270Z,99752.77
2023-03-06T22:31:45.070Z,99751.19
2023-03-06T22:34:15.015Z,99747.89
2023-03-06T22:36:44.813Z,99742.13
2023-03-06T22:39:15.206Z,99741.19
2023-03-06T22:41:45.067Z,99737.88
2023-03-06T22:44:19.052Z,99735.14
2023-03-06T22:46:49.368Z,99739.80
2023-03-06T22:49:19.290Z,99735.23
2023-03-06T22:51:49.079Z,99729.67
2023-03-06T22:54:18.950Z,99727.84
2023-03-06T22:56:48.778Z,99726.58
2023-03-06T22:59:18.620Z,99720.70
2023-03-06T23:01:48.448Z,99720.09
2023-03-06T23:04:18.510Z,99718.85
2023-03-06T23:06:48.556Z,99721.67
2023-03-06T23:09:22.318Z,99719.27
2023-03-06T23:11:52.320Z,99721.79
2023-03-06T23:14:22.424Z,99721.73
2023-03-06T23:16:51.565Z,99717.13
2023-03-06T23:19:19.274Z,99706.39
2023-03-06T23:21:47.728Z,99708.95
2023-03-06T23:24:18.233Z,99705.02
2023-03-06T23:26:45.471Z,99703.31
2023-03-06T23:29:13.864Z,99701.09
2023-03-06T23:31:42.301Z,99700.38
2023-03-06T23:34:11.566Z,99694.30
2023-03-06T23:36:40.476Z,99694.90
2023-03-06T23:39:11.973Z,99694.88
2023-03-06T23:41:40.911Z,99690.60
2023-03-06T23:44:09.301Z,99684.59
2023-03-06T23:46:37.718Z,99681.10
2023-03-06T23:49:07.534Z,99681.55
2023-03-06T23:51:35.052Z,99678.23
2023-03-06T23:54:03.317Z,99675.30
2023-03-06T23:56:31.479Z,99674.52
2023-03-06T23:58:59.879Z,99669.18
